Atwood, Wisconsin
Current Conditions -  °F | °C
As of 3:35 PM on Friday 28 Nov 2014 (Local Time) from KMDZ Reporting Station
Light Snow Light Snow  
Wind Chill:   Ceiling: 6500
Heat Index: 17°   Visibility: 4mi
Dew Point: 12°   Wind: 7mph
Humidity: 83%   Direction: 120°ESE
Pressure: 29.87"   Gusts: NA
Location:  44.9782°N, 90.5368°W
Report Text: KMDZ 282135Z AUTO 12006KT 4SM -SN SCT013 SCT017 OVC065 M08/M11 A2987 RMK AO2 T10851109
Loading
Personal Weather Stations






























Interactive Weather Map New forecast layout! Learn more

10-Day Weather Forecast

Advertisements
Track Severe Weather on mobile